Hagatna, Guam
Current Conditions -  °F | °C
As of 6:54 PM on Sunday 21 Dec 2014 (Local Time) from PGUM Reporting Station
Few Clouds Few Clouds  
Wind Chill: 83°   Ceiling: Unl
Heat Index: 89°   Visibility: 10mi
Dew Point: 74°   Wind: 16mph
Humidity: 74%   Direction: 80°E
Pressure: 29.86"   Gusts: 23mph
Location:  13.48°N, 144.8°E
Report Text: PGUM 210854Z 08014G20KT 10SM FEW026 28/23 A2986 RMK AO2 SLP103 T02830233 53009
Loading
Personal Weather Stations






























Interactive Weather Map New forecast layout! Learn more

10-Day Weather Forecast

Advertisements
Track Severe Weather on mobile